Time;durP1;ratioP1;P1;durP2;ratioP2;P2;SDS_P1;SDS_P2;PMS_P1;PMS_P2;Temp;Humidity;BMP_temperature;BMP_pressure;BME280_temperature;BME280_humidity;BME280_pressure;Samples;Min_cycle;Max_cycle;Signal;HPM_P1;HPM_P2
2023/03/22 00:02:19;;;;;;;15.43;9.93;;;10.20;99.90;;;;;;5027293;28;20029;-53
2023/03/22 00:04:45;;;;;;;13.82;9.55;;;10.20;99.90;;;;;;5024441;28;20029;-53
2023/03/22 00:07:10;;;;;;;14.05;8.98;;;10.20;99.90;;;;;;5022385;28;20588;-47
2023/03/22 00:09:36;;;;;;;13.70;9.38;;;10.20;99.90;;;;;;5032084;28;20318;-51
2023/03/22 00:12:02;;;;;;;14.32;9.68;;;10.20;99.90;;;;;;5040760;28;20059;-54
2023/03/22 00:14:27;;;;;;;15.85;9.85;;;10.10;99.90;;;;;;5033141;28;20033;-52
2023/03/22 00:16:53;;;;;;;13.35;8.88;;;10.10;99.90;;;;;;5024566;28;20504;-54
2023/03/22 00:19:18;;;;;;;12.48;9.05;;;10.10;99.90;;;;;;5023923;28;20033;-53
2023/03/22 00:21:45;;;;;;;16.05;10.50;;;10.10;99.90;;;;;;5016531;28;20274;-54
2023/03/22 00:24:11;;;;;;;16.15;9.20;;;10.00;99.90;;;;;;5034334;28;20033;-53
2023/03/22 00:26:36;;;;;;;13.80;9.77;;;10.00;99.90;;;;;;5026258;28;20017;-50
2023/03/22 00:29:02;;;;;;;14.48;9.38;;;10.00;99.90;;;;;;5027873;28;20049;-53
2023/03/22 00:31:27;;;;;;;15.73;9.20;;;9.90;99.90;;;;;;5033903;28;20049;-49
2023/03/22 00:33:53;;;;;;;13.60;8.65;;;9.90;99.90;;;;;;5033642;28;20029;-53
2023/03/22 00:36:19;;;;;;;13.07;8.90;;;9.80;99.90;;;;;;5029753;28;20044;-51
2023/03/22 00:38:44;;;;;;;13.95;8.80;;;9.80;99.90;;;;;;5036762;28;20691;-50
2023/03/22 00:41:16;;;;;;;14.45;9.82;;;9.80;99.90;;;;;;5022141;28;20037;-49
2023/03/22 00:43:42;;;;;;;13.88;9.57;;;9.70;99.90;;;;;;5021751;28;20059;-51
2023/03/22 00:46:09;;;;;;;16.48;9.68;;;9.70;99.90;;;;;;5038271;28;20489;-50
2023/03/22 00:48:35;;;;;;;16.30;10.55;;;9.60;99.90;;;;;;5039212;28;20120;-60
2023/03/22 00:51:01;;;;;;;15.20;9.90;;;9.50;99.90;;;;;;5051691;28;20219;-60
2023/03/22 00:53:27;;;;;;;14.85;9.15;;;9.40;99.90;;;;;;5030568;28;20033;-60
2023/03/22 00:55:54;;;;;;;14.73;9.23;;;9.40;99.90;;;;;;5051614;28;20082;-60
2023/03/22 00:58:19;;;;;;;16.20;9.73;;;9.30;99.90;;;;;;5029547;28;20116;-60
2023/03/22 01:00:45;;;;;;;15.20;9.63;;;9.20;99.90;;;;;;5051223;28;20112;-60
2023/03/22 01:03:13;;;;;;;15.95;8.82;;;9.20;99.90;;;;;;5030722;28;20044;-60
2023/03/22 01:05:38;;;;;;;17.30;9.68;;;9.10;99.90;;;;;;5037212;28;20048;-49
2023/03/22 01:08:07;;;;;;;14.27;8.90;;;9.00;99.90;;;;;;5038694;28;20489;-47
2023/03/22 01:10:37;;;;;;;16.67;9.95;;;8.90;99.90;;;;;;5038992;28;20021;-51
2023/03/22 01:13:03;;;;;;;16.10;8.77;;;8.90;99.90;;;;;;5030840;28;20040;-52
2023/03/22 01:15:29;;;;;;;18.20;9.75;;;8.90;99.90;;;;;;5040448;28;20037;-59
2023/03/22 01:17:55;;;;;;;15.07;9.27;;;8.80;99.90;;;;;;5051125;28;20032;-60
2023/03/22 01:20:21;;;;;;;19.13;9.32;;;8.80;99.90;;;;;;5029163;28;20033;-59
2023/03/22 01:22:46;;;;;;;15.98;9.85;;;8.80;99.90;;;;;;5031591;28;20140;-60
2023/03/22 01:25:12;;;;;;;15.73;8.43;;;8.80;99.90;;;;;;5042523;28;20553;-59
2023/03/22 01:27:38;;;;;;;14.13;9.32;;;8.90;99.90;;;;;;5031794;28;20033;-60
2023/03/22 01:30:04;;;;;;;13.32;7.50;;;8.90;99.90;;;;;;5043415;28;20025;-58
2023/03/22 01:32:30;;;;;;;17.10;10.00;;;8.90;99.90;;;;;;5031332;28;20124;-59
2023/03/22 01:34:55;;;;;;;16.90;9.52;;;9.00;99.90;;;;;;5044725;28;20438;-59
2023/03/22 01:37:24;;;;;;;15.30;9.45;;;9.00;99.90;;;;;;5030249;28;20787;-59
2023/03/22 01:39:49;;;;;;;20.35;10.80;;;9.10;99.90;;;;;;5045909;28;20021;-59
2023/03/22 01:42:15;;;;;;;17.58;10.30;;;9.10;99.90;;;;;;5031484;28;20079;-60
2023/03/22 01:44:43;;;;;;;18.25;10.60;;;9.20;99.90;;;;;;5046363;28;20033;-59
2023/03/22 01:47:10;;;;;;;20.35;11.15;;;9.20;99.90;;;;;;5031401;28;20026;-60
2023/03/22 01:49:37;;;;;;;16.63;9.98;;;9.20;99.90;;;;;;5047277;28;20088;-59
2023/03/22 01:52:10;;;;;;;14.07;9.82;;;9.30;99.90;;;;;;5029820;28;20025;-58
2023/03/22 01:54:45;;;;;;;14.45;9.15;;;9.30;99.90;;;;;;5047720;28;20108;-59
2023/03/22 01:57:11;;;;;;;16.75;9.40;;;9.30;99.90;;;;;;5031241;28;20548;-59
2023/03/22 01:59:39;;;;;;;12.20;7.82;;;9.30;99.90;;;;;;5046897;28;20129;-59
2023/03/22 02:02:06;;;;;;;17.63;8.60;;;9.40;99.90;;;;;;5029604;28;20026;-59
2023/03/22 02:04:37;;;;;;;14.43;9.00;;;9.30;99.90;;;;;;5047264;28;20029;-58
2023/03/22 02:07:14;;;;;;;14.82;9.25;;;9.30;99.90;;;;;;5026238;28;20509;-59
2023/03/22 02:09:41;;;;;;;15.85;10.10;;;9.40;99.90;;;;;;5011251;28;20034;-60
2023/03/22 02:12:25;;;;;;;15.20;9.75;;;9.40;99.90;;;;;;5030792;28;20074;-59
2023/03/22 02:15:10;;;;;;;16.70;9.50;;;9.30;99.90;;;;;;5044489;28;20462;-59
2023/03/22 02:17:53;;;;;;;17.38;9.07;;;9.40;99.90;;;;;;5029440;28;20030;-59
2023/03/22 02:20:57;;;;;;;15.27;9.05;;;9.40;99.90;;;;;;5040943;28;20029;-59
2023/03/22 02:23:47;;;;;;;15.40;8.57;;;9.40;99.90;;;;;;5010288;28;20042;-60
2023/03/22 02:26:23;;;;;;;14.60;9.20;;;9.40;99.90;;;;;;5032529;28;20037;-60
2023/03/22 02:28:49;;;;;;;;;;;9.40;99.90;;;;;;5011230;28;20482;-59
2023/03/22 02:31:37;;;;;;;14.57;8.50;;;9.40;99.90;;;;;;5038757;28;19920;-59
2023/03/22 02:34:13;;;;;;;18.27;9.63;;;9.40;99.90;;;;;;5050229;28;20036;-60
2023/03/22 02:37:15;;;;;;;14.27;9.52;;;9.40;99.90;;;;;;5027108;28;20033;-60
2023/03/22 02:39:54;;;;;;;13.93;9.27;;;9.40;99.90;;;;;;5010851;28;20030;-60
2023/03/22 02:42:41;;;;;;;16.63;10.57;;;9.30;99.90;;;;;;5030331;28;20013;-60
2023/03/22 02:45:23;;;;;;;15.68;9.20;;;9.40;99.90;;;;;;5013999;28;20060;-59
2023/03/22 02:48:04;;;;;;;14.75;8.38;;;9.40;99.90;;;;;;5028718;28;20092;-60
2023/03/22 02:50:39;;;;;;;16.10;9.77;;;9.40;99.90;;;;;;5017428;28;20032;-60
2023/03/22 02:53:28;;;;;;;13.00;8.15;;;9.30;99.90;;;;;;5010110;28;20082;-60
2023/03/22 02:56:06;;;;;;;12.65;7.95;;;9.30;99.90;;;;;;5019853;28;20045;-60
2023/03/22 02:58:44;;;;;;;12.23;8.70;;;9.30;99.90;;;;;;5010241;28;20040;-60
2023/03/22 03:01:25;;;;;;;14.48;9.48;;;9.30;99.90;;;;;;5022476;28;20136;-61
2023/03/22 03:03:56;;;;;;;17.33;10.15;;;9.20;99.90;;;;;;5010256;28;20041;-60
2023/03/22 03:06:27;;;;;;;12.63;8.02;;;9.20;99.90;;;;;;5021166;28;20172;-60
2023/03/22 03:08:56;;;;;;;14.15;9.43;;;9.20;99.90;;;;;;5010157;28;20120;-60
2023/03/22 03:11:22;;;;;;;16.05;9.98;;;9.10;99.90;;;;;;5031276;28;20848;-60
2023/03/22 03:13:49;;;;;;;14.70;9.93;;;9.00;99.90;;;;;;5048901;28;20044;-60
2023/03/22 03:16:18;;;;;;;18.40;9.93;;;9.00;99.90;;;;;;5028323;28;20397;-60
2023/03/22 03:18:52;;;;;;;19.23;10.38;;;9.00;99.90;;;;;;5049169;28;20056;-61
2023/03/22 03:21:28;;;;;;;15.98;9.10;;;8.90;99.90;;;;;;5023362;28;20646;-60
2023/03/22 03:24:18;;;;;;;16.48;10.25;;;8.90;99.90;;;;;;5009821;28;20041;-60
2023/03/22 03:27:01;;;;;;;18.80;10.05;;;8.90;99.90;;;;;;5026512;28;20059;-60
2023/03/22 03:29:49;;;;;;;15.70;10.10;;;8.80;99.90;;;;;;5007744;28;20066;-59
2023/03/22 03:32:20;;;;;;;15.13;8.88;;;8.80;99.90;;;;;;5029268;28;20045;-60
2023/03/22 03:34:56;;;;;;;14.63;8.45;;;8.70;99.90;;;;;;5010348;28;20514;-60
2023/03/22 03:37:28;;;;;;;16.20;9.23;;;8.70;99.90;;;;;;5029288;28;20669;-60
2023/03/22 03:40:01;;;;;;;12.93;8.68;;;8.70;99.90;;;;;;5011543;28;20489;-60
2023/03/22 03:42:29;;;;;;;11.55;8.43;;;8.60;99.90;;;;;;5029091;28;20028;-60
2023/03/22 03:44:55;;;;;;;17.05;10.35;;;8.60;99.90;;;;;;5042920;28;20391;-61
2023/03/22 03:47:21;;;;;;;16.80;10.27;;;8.50;99.90;;;;;;5029143;28;20437;-60
2023/03/22 03:49:47;;;;;;;18.33;10.02;;;8.40;99.90;;;;;;5043436;28;20021;-60
2023/03/22 03:52:13;;;;;;;17.83;10.23;;;8.40;99.90;;;;;;5029196;28;20049;-59
2023/03/22 03:54:39;;;;;;;19.17;10.63;;;8.30;99.90;;;;;;5044523;28;20043;-59
2023/03/22 03:57:05;;;;;;;17.00;10.32;;;8.30;99.90;;;;;;5028834;28;20021;-60
2023/03/22 03:59:30;;;;;;;19.73;10.63;;;8.20;99.90;;;;;;5045526;28;20040;-59
2023/03/22 04:01:56;;;;;;;18.35;9.93;;;8.20;99.90;;;;;;5029097;28;20032;-60
2023/03/22 04:04:25;;;;;;;19.15;11.13;;;8.10;99.90;;;;;;5030517;28;20829;-60
2023/03/22 04:06:55;;;;;;;15.07;10.07;;;8.10;99.90;;;;;;5021647;28;20577;-60
2023/03/22 04:09:23;;;;;;;15.40;9.27;;;8.00;99.90;;;;;;5009193;28;20034;-60
2023/03/22 04:11:49;;;;;;;18.30;10.45;;;8.00;99.90;;;;;;5026939;28;20040;-60
2023/03/22 04:14:14;;;;;;;19.10;11.07;;;7.90;99.90;;;;;;5031330;28;20104;-59
2023/03/22 04:16:40;;;;;;;18.70;11.05;;;7.90;99.90;;;;;;5028164;28;20057;-60
2023/03/22 04:19:05;;;;;;;17.10;9.85;;;7.80;99.90;;;;;;5034012;28;20428;-59
2023/03/22 04:21:31;;;;;;;16.30;9.52;;;7.80;99.90;;;;;;5047953;28;20028;-60
2023/03/22 04:23:57;;;;;;;20.52;11.57;;;7.70;99.90;;;;;;5027427;28;20502;-60
2023/03/22 04:26:22;;;;;;;17.75;10.90;;;7.70;99.90;;;;;;5047751;28;20037;-60
2023/03/22 04:28:48;;;;;;;18.67;10.10;;;7.70;99.90;;;;;;5026984;28;20030;-60
2023/03/22 04:31:13;;;;;;;17.98;10.73;;;7.70;99.90;;;;;;5040862;28;20115;-59
2023/03/22 04:33:39;;;;;;;21.45;11.60;;;7.70;99.90;;;;;;5035287;28;20029;-60
2023/03/22 04:36:14;;;;;;;22.73;12.00;;;7.80;99.90;;;;;;5027594;28;20033;-61
2023/03/22 04:38:41;;;;;;;19.58;10.77;;;7.80;99.90;;;;;;5023817;28;20032;-60
2023/03/22 04:41:07;;;;;;;21.50;11.30;;;7.80;99.90;;;;;;5028429;28;20417;-59
2023/03/22 04:43:33;;;;;;;20.20;10.73;;;7.80;99.90;;;;;;5038462;28;20036;-60
2023/03/22 04:46:00;;;;;;;19.48;11.93;;;7.80;99.90;;;;;;5028568;28;20022;-60
2023/03/22 04:48:26;;;;;;;20.10;11.27;;;7.70;99.90;;;;;;5039076;28;20025;-60
2023/03/22 04:50:52;;;;;;;20.58;10.35;;;7.70;99.90;;;;;;5028490;28;20029;-60
2023/03/22 04:53:18;;;;;;;20.23;10.70;;;7.70;99.90;;;;;;5039957;28;20017;-60
2023/03/22 04:55:44;;;;;;;21.70;11.98;;;7.70;99.90;;;;;;5028070;28;20542;-60
2023/03/22 04:58:09;;;;;;;19.92;12.30;;;7.70;99.90;;;;;;5021108;28;20109;-59
2023/03/22 05:00:36;;;;;;;24.23;12.70;;;7.70;99.90;;;;;;5026402;28;20026;-60
2023/03/22 05:03:02;;;;;;;26.73;13.73;;;7.80;99.90;;;;;;5025003;28;20618;-59
2023/03/22 05:05:28;;;;;;;18.13;10.73;;;7.90;99.90;;;;;;5031427;28;20028;-59
2023/03/22 05:07:55;;;;;;;20.10;12.75;;;7.90;99.90;;;;;;5026432;28;20041;-60
2023/03/22 05:10:20;;;;;;;21.63;11.65;;;7.90;99.90;;;;;;5026319;28;20030;-58
2023/03/22 05:12:46;;;;;;;18.08;11.25;;;8.00;99.90;;;;;;5027325;28;20452;-59
2023/03/22 05:15:12;;;;;;;21.80;12.15;;;8.10;99.90;;;;;;5046310;28;20104;-59
2023/03/22 05:17:37;;;;;;;22.05;12.90;;;8.10;99.90;;;;;;5024601;28;20095;-60
2023/03/22 05:20:08;;;;;;;16.35;10.45;;;8.20;99.90;;;;;;5029063;28;20509;-58
2023/03/22 05:22:36;;;;;;;20.35;11.07;;;8.20;99.90;;;;;;5023295;28;20029;-59
2023/03/22 05:25:04;;;;;;;21.85;11.98;;;8.30;99.90;;;;;;5039976;28;20029;-59
2023/03/22 05:27:33;;;;;;;22.30;12.23;;;8.30;99.90;;;;;;5027951;28;20095;-59
2023/03/22 05:29:59;;;;;;;22.00;11.95;;;8.40;99.90;;;;;;5047402;28;20021;-61
2023/03/22 05:32:27;;;;;;;21.40;12.73;;;8.40;99.90;;;;;;5028967;28;20115;-60
2023/03/22 05:34:54;;;;;;;18.90;10.95;;;8.40;99.90;;;;;;5051078;28;20045;-60
2023/03/22 05:37:19;;;;;;;23.20;12.82;;;8.50;99.90;;;;;;5029953;28;20026;-61
2023/03/22 05:39:48;;;;;;;20.27;11.48;;;8.50;99.90;;;;;;5051008;28;20052;-60
2023/03/22 05:42:13;;;;;;;18.63;11.02;;;8.60;99.90;;;;;;5028541;28;20274;-60
2023/03/22 05:44:39;;;;;;;21.35;12.57;;;8.60;99.90;;;;;;5029045;28;20029;-59
2023/03/22 05:47:05;;;;;;;20.83;11.68;;;8.60;99.90;;;;;;5029393;28;20029;-59
2023/03/22 05:49:31;;;;;;;19.13;12.30;;;8.60;99.90;;;;;;5050127;28;20492;-59
2023/03/22 05:51:57;;;;;;;14.70;9.65;;;8.70;99.90;;;;;;5039226;28;20256;-59
2023/03/22 05:54:22;;;;;;;19.35;11.43;;;8.70;99.90;;;;;;5031255;28;20033;-59
2023/03/22 05:56:47;;;;;;;19.00;12.85;;;8.70;99.90;;;;;;5048051;28;20106;-59
2023/03/22 05:59:13;;;;;;;23.23;12.50;;;8.70;99.90;;;;;;5031325;28;20044;-59
2023/03/22 06:01:38;;;;;;;19.60;11.32;;;8.70;99.90;;;;;;5047444;28;20055;-59
2023/03/22 06:04:04;;;;;;;19.27;11.38;;;8.80;99.90;;;;;;5050911;28;20071;-59
2023/03/22 06:06:29;;;;;;;17.05;11.02;;;8.80;99.90;;;;;;5032296;28;20040;-59
2023/03/22 06:08:55;;;;;;;21.67;12.90;;;8.80;99.90;;;;;;5043531;28;20080;-59
2023/03/22 06:11:21;;;;;;;21.08;11.88;;;8.90;99.90;;;;;;5049578;28;20044;-58
2023/03/22 06:13:47;;;;;;;18.33;11.25;;;8.90;99.90;;;;;;5035203;28;20062;-59
2023/03/22 06:16:12;;;;;;;16.05;10.35;;;8.90;99.90;;;;;;5030442;28;20429;-58
2023/03/22 06:18:38;;;;;;;18.30;11.63;;;9.00;99.90;;;;;;5047458;28;20033;-59
2023/03/22 06:21:04;;;;;;;17.77;11.77;;;9.00;99.90;;;;;;5046997;28;20544;-59
2023/03/22 06:23:29;;;;;;;18.23;11.02;;;9.10;99.90;;;;;;5029248;28;20030;-59
2023/03/22 06:25:55;;;;;;;17.27;10.68;;;9.10;99.90;;;;;;5027763;28;20289;-60
2023/03/22 06:28:20;;;;;;;16.73;10.70;;;9.20;99.90;;;;;;5047898;28;20325;-59
2023/03/22 06:30:46;;;;;;;15.80;10.70;;;9.20;99.90;;;;;;5028775;28;20095;-59
2023/03/22 06:33:11;;;;;;;18.42;11.02;;;9.30;99.90;;;;;;5049299;28;20041;-59
2023/03/22 06:35:37;;;;;;;16.27;10.23;;;9.30;99.90;;;;;;5028589;28;20044;-59
2023/03/22 06:38:02;;;;;;;19.42;12.20;;;9.30;99.90;;;;;;5049103;28;20029;-58
2023/03/22 06:40:28;;;;;;;22.48;12.43;;;9.30;99.90;;;;;;5028670;28;20128;-59
2023/03/22 06:42:53;;;;;;;19.48;12.25;;;9.40;99.90;;;;;;5049084;28;20114;-59
2023/03/22 06:45:22;;;;;;;15.93;10.32;;;9.40;99.90;;;;;;5028298;28;20270;-59
2023/03/22 06:47:49;;;;;;;20.83;10.30;;;9.40;99.90;;;;;;5049018;28;20551;-59
2023/03/22 06:50:14;;;;;;;15.38;9.57;;;9.50;99.90;;;;;;5028370;28;20025;-62
2023/03/22 06:52:40;;;;;;;16.27;11.07;;;9.60;99.90;;;;;;5048619;28;20503;-48
2023/03/22 06:55:06;;;;;;;16.63;10.55;;;9.60;99.90;;;;;;5028294;28;20175;-64
2023/03/22 06:57:31;;;;;;;17.40;11.45;;;9.60;99.90;;;;;;5048783;28;20036;-63
2023/03/22 06:59:57;;;;;;;18.75;12.10;;;9.70;99.90;;;;;;5038263;28;20021;-63
2023/03/22 07:02:22;;;;;;;20.13;11.98;;;9.70;99.90;;;;;;5029960;28;20084;-63
2023/03/22 07:04:48;;;;;;;17.67;11.48;;;9.80;99.90;;;;;;5043827;28;20039;-64
2023/03/22 07:07:13;;;;;;;16.63;10.95;;;9.80;99.90;;;;;;5029926;28;20279;-65
2023/03/22 07:09:39;;;;;;;19.40;11.75;;;9.80;99.90;;;;;;5046505;28;20473;-64
2023/03/22 07:12:05;;;;;;;19.20;10.88;;;9.90;99.90;;;;;;5029771;28;20033;-63
2023/03/22 07:14:31;;;;;;;15.48;9.95;;;9.90;99.90;;;;;;5046662;28;20025;-64
2023/03/22 07:16:57;;;;;;;15.02;9.98;;;10.00;99.90;;;;;;5048856;28;20433;-64
2023/03/22 07:19:23;;;;;;;15.93;10.07;;;10.10;99.90;;;;;;5033396;28;20021;-64
2023/03/22 07:21:48;;;;;;;14.10;9.55;;;10.10;99.90;;;;;;5049046;28;20033;-64
2023/03/22 07:24:14;;;;;;;14.93;9.07;;;10.20;99.90;;;;;;5032002;28;20031;-63
2023/03/22 07:26:40;;;;;;;11.55;8.73;;;10.20;99.90;;;;;;5048833;28;20108;-63
2023/03/22 07:29:05;;;;;;;12.50;8.63;;;10.30;99.90;;;;;;5030794;28;20029;-63
2023/03/22 07:31:35;;;;;;;13.70;9.57;;;10.40;99.90;;;;;;5039578;28;20041;-64
2023/03/22 07:34:04;;;;;;;11.65;8.43;;;10.40;99.90;;;;;;5046630;28;20394;-63
2023/03/22 07:36:29;;;;;;;12.85;7.65;;;10.50;99.90;;;;;;5048776;28;20448;-64
2023/03/22 07:38:55;;;;;;;14.25;9.20;;;10.50;99.90;;;;;;5027987;28;20021;-63
2023/03/22 07:41:22;;;;;;;15.88;9.23;;;10.60;99.90;;;;;;5048591;28;20029;-63
2023/03/22 07:43:48;;;;;;;16.17;10.20;;;10.70;99.90;;;;;;5027970;28;20486;-63
2023/03/22 07:46:14;;;;;;;14.13;9.48;;;10.80;99.90;;;;;;5048798;28;20025;-63
2023/03/22 07:48:40;;;;;;;11.95;8.32;;;10.80;99.90;;;;;;5028966;28;20099;-64
2023/03/22 07:51:06;;;;;;;11.20;8.32;;;10.90;99.90;;;;;;5046742;28;20060;-63
2023/03/22 07:53:31;;;;;;;10.40;7.63;;;11.00;99.90;;;;;;5029306;28;20039;-63
2023/03/22 07:55:56;;;;;;;11.63;8.10;;;11.10;99.90;;;;;;5027388;28;20025;-64
2023/03/22 07:58:22;;;;;;;11.10;7.43;;;11.20;99.90;;;;;;5047597;28;20086;-64
2023/03/22 08:00:48;;;;;;;13.93;8.50;;;11.30;99.90;;;;;;5027299;28;20034;-64
2023/03/22 08:03:14;;;;;;;11.15;7.60;;;11.50;99.90;;;;;;5047664;28;20036;-64
2023/03/22 08:05:41;;;;;;;12.77;8.15;;;11.60;99.90;;;;;;5031954;28;20041;-64
2023/03/22 08:08:07;;;;;;;10.63;7.78;;;11.60;99.90;;;;;;5027468;28;20470;-63
2023/03/22 08:10:32;;;;;;;10.88;7.22;;;11.70;99.90;;;;;;5030779;28;20037;-64
2023/03/22 08:12:58;;;;;;;12.43;9.20;;;11.90;99.90;;;;;;5047430;28;20029;-64
2023/03/22 08:15:23;;;;;;;12.15;8.15;;;12.00;99.90;;;;;;5027090;28;21002;-64
2023/03/22 08:17:49;;;;;;;10.95;7.57;;;12.10;99.90;;;;;;5046293;28;20315;-64
2023/03/22 08:20:17;;;;;;;10.00;6.50;;;12.20;99.90;;;;;;5027224;28;20032;-64
2023/03/22 08:22:43;;;;;;;11.82;7.57;;;12.40;99.90;;;;;;5047860;28;20059;-65
2023/03/22 08:25:09;;;;;;;10.70;7.38;;;12.60;99.90;;;;;;5026853;28;20528;-63
2023/03/22 08:27:34;;;;;;;11.60;7.43;;;12.80;99.90;;;;;;5047488;28;20029;-64
2023/03/22 08:30:01;;;;;;;9.88;6.15;;;13.00;99.90;;;;;;5037441;28;20089;-64
2023/03/22 08:32:26;;;;;;;10.35;6.20;;;13.20;99.90;;;;;;5028762;28;20046;-64
2023/03/22 08:34:52;;;;;;;9.30;6.85;;;13.40;99.90;;;;;;5045681;28;20397;-65
2023/03/22 08:37:19;;;;;;;11.30;6.97;;;13.60;99.90;;;;;;5028348;28;20075;-64
2023/03/22 08:39:45;;;;;;;7.88;6.10;;;13.70;99.90;;;;;;5045977;28;20036;-65
2023/03/22 08:42:11;;;;;;;7.40;5.88;;;14.10;99.90;;;;;;5028643;28;20556;-64
2023/03/22 08:44:36;;;;;;;9.02;6.97;;;14.50;99.90;;;;;;5045518;28;20032;-65
2023/03/22 08:47:02;;;;;;;9.70;5.22;;;15.10;99.70;;;;;;5048150;28;20408;-65
2023/03/22 08:49:28;;;;;;;8.23;5.80;;;15.70;97.40;;;;;;5032906;28;20120;-65
2023/03/22 08:51:53;;;;;;;7.00;5.53;;;16.30;99.90;;;;;;5047988;28;20262;-65
2023/03/22 08:54:19;;;;;;;7.20;4.28;;;16.70;99.90;;;;;;5032468;28;20408;-65
2023/03/22 08:56:45;;;;;;;6.95;4.93;;;17.20;99.90;;;;;;5051916;28;20058;-65
2023/03/22 08:59:11;;;;;;;5.60;4.43;;;17.60;97.90;;;;;;5034260;28;20036;-65
2023/03/22 09:01:36;;;;;;;6.80;5.55;;;17.80;94.60;;;;;;5051572;28;20021;-66
2023/03/22 09:04:03;;;;;;;6.35;5.15;;;17.80;92.40;;;;;;5033421;28;20931;-66
2023/03/22 09:06:28;;;;;;;7.10;4.97;;;17.90;73.90;;;;;;5048793;28;20025;-65
2023/03/22 09:08:55;;;;;;;7.70;5.35;;;17.70;69.70;;;;;;5032009;28;20025;-65
2023/03/22 09:11:21;;;;;;;7.20;4.45;;;17.40;73.10;;;;;;5051484;28;20051;-66
2023/03/22 09:13:47;;;;;;;6.03;4.28;;;17.30;83.40;;;;;;5030917;28;20039;-65
2023/03/22 09:16:13;;;;;;;6.05;5.15;;;17.30;84.30;;;;;;5051754;28;20028;-65
2023/03/22 09:18:39;;;;;;;7.65;4.75;;;17.20;81.00;;;;;;5031768;28;20022;-65
2023/03/22 09:21:06;;;;;;;5.55;4.38;;;17.20;82.20;;;;;;5049387;28;20032;-64
2023/03/22 09:23:33;;;;;;;6.22;5.13;;;17.20;81.90;;;;;;5031598;28;20156;-65
2023/03/22 09:26:00;;;;;;;6.43;4.75;;;17.20;77.70;;;;;;5029955;28;20021;-65
2023/03/22 09:28:27;;;;;;;9.02;4.78;;;17.20;81.60;;;;;;5050682;28;20036;-65
2023/03/22 09:30:52;;;;;;;7.00;5.00;;;17.30;78.40;;;;;;5033410;28;20445;-65
2023/03/22 09:33:18;;;;;;;5.38;4.20;;;17.20;75.20;;;;;;5050938;28;20108;-65
2023/03/22 09:35:44;;;;;;;6.50;4.55;;;17.20;76.80;;;;;;5029951;28;20111;-65
2023/03/22 09:38:11;;;;;;;6.95;4.20;;;17.40;76.10;;;;;;5050694;28;20385;-64
2023/03/22 09:40:41;;;;;;;5.38;3.95;;;17.50;75.80;;;;;;5029454;28;20025;-65
2023/03/22 09:43:11;;;;;;;4.90;4.40;;;17.70;72.00;;;;;;5011378;28;20038;-65
2023/03/22 09:45:41;;;;;;;6.65;4.85;;;17.60;71.70;;;;;;5032786;28;20033;-65
2023/03/22 09:48:29;;;;;;;5.07;3.90;;;17.70;71.60;;;;;;5050705;28;20469;-65
2023/03/22 09:50:55;;;;;;;3.38;2.92;;;17.90;70.50;;;;;;5027665;28;20376;-66
2023/03/22 09:53:23;;;;;;;4.75;3.80;;;18.10;73.30;;;;;;5049765;28;20218;-66
2023/03/22 09:55:57;;;;;;;4.93;3.90;;;18.20;71.10;;;;;;5029242;28;20037;-66
2023/03/22 09:58:46;;;;;;;7.15;4.18;;;18.40;70.40;;;;;;5049897;28;20033;-65
2023/03/22 10:01:33;;;;;;;5.25;3.40;;;18.40;62.30;;;;;;5011023;28;20394;-65
2023/03/22 10:04:08;;;;;;;6.43;3.58;;;18.50;68.50;;;;;;5013583;28;20080;-66
2023/03/22 10:06:34;;;;;;;5.15;3.22;;;18.70;67.60;;;;;;5044283;28;20021;-66
2023/03/22 10:09:14;;;;;;;4.18;3.78;;;18.90;68.00;;;;;;5031300;28;20033;-65
2023/03/22 10:12:03;;;;;;;4.38;3.75;;;19.10;54.10;;;;;;5050307;28;20021;-65
2023/03/22 10:14:40;;;;;;;5.93;4.57;;;19.10;60.50;;;;;;5021807;28;20029;-66
2023/03/22 10:17:10;;;;;;;5.55;3.72;;;19.20;53.80;;;;;;5050654;28;20052;-66
2023/03/22 10:20:03;;;;;;;5.95;3.45;;;19.10;57.50;;;;;;5023703;28;20195;-65
2023/03/22 10:22:36;;;;;;;8.30;3.92;;;19.00;54.10;;;;;;5010803;28;20053;-65
2023/03/22 10:25:05;;;;;;;5.68;4.35;;;18.80;55.40;;;;;;5030777;28;20041;-65
2023/03/22 10:27:32;;;;;;;6.93;5.32;;;18.60;56.80;;;;;;5030256;28;20087;-65
2023/03/22 10:30:08;;;;;;;8.77;4.57;;;18.30;56.00;;;;;;5047385;28;20371;-65
2023/03/22 10:32:47;;;;;;;9.00;5.10;;;18.20;53.70;;;;;;5010395;28;20045;-65
2023/03/22 10:35:14;;;;;;;7.30;4.68;;;18.00;56.30;;;;;;5031927;28;20029;-65
2023/03/22 10:37:43;;;;;;;7.97;4.40;;;17.80;57.20;;;;;;5030337;28;20157;-65
2023/03/22 10:40:17;;;;;;;6.22;4.72;;;17.70;57.90;;;;;;5035995;28;20037;-65
2023/03/22 10:42:51;;;;;;;5.22;4.20;;;17.60;56.60;;;;;;5010384;28;20065;-65
2023/03/22 10:45:17;;;;;;;7.30;4.30;;;17.70;58.70;;;;;;5021081;28;20034;-65
2023/03/22 10:48:05;;;;;;;6.35;3.97;;;17.70;58.10;;;;;;5049079;28;20028;-65
2023/03/22 10:50:37;;;;;;;7.25;4.15;;;17.80;54.10;;;;;;5023252;28;20068;-65
2023/03/22 10:53:10;;;;;;;6.03;4.05;;;17.80;55.20;;;;;;5010330;28;20109;-65
2023/03/22 10:55:40;;;;;;;6.00;4.68;;;17.80;56.80;;;;;;5032116;28;20091;-65
2023/03/22 10:58:14;;;;;;;6.63;4.72;;;17.50;52.90;;;;;;5049228;28;20029;-64
2023/03/22 11:01:04;;;;;;;4.13;3.70;;;17.50;53.00;;;;;;5027778;28;20026;-64
2023/03/22 11:03:35;;;;;;;6.07;3.92;;;17.40;55.40;;;;;;5009895;28;20054;-65
2023/03/22 11:06:09;;;;;;;5.57;3.38;;;17.50;54.30;;;;;;5023721;28;20496;-65
2023/03/22 11:08:57;;;;;;;5.43;3.80;;;17.50;56.40;;;;;;5048930;28;20036;-65
2023/03/22 11:11:26;;;;;;;9.00;4.50;;;17.70;55.10;;;;;;5009718;28;20037;-64
2023/03/22 11:14:07;;;;;;;5.88;4.63;;;17.60;53.30;;;;;;5046898;28;20029;-64
2023/03/22 11:16:45;;;;;;;4.97;3.72;;;17.50;53.50;;;;;;5048777;28;20037;-64
2023/03/22 11:19:23;;;;;;;4.35;3.53;;;17.60;55.40;;;;;;5015680;28;20017;-64
2023/03/22 11:21:50;;;;;;;5.32;3.00;;;17.70;53.90;;;;;;5047946;28;20456;-65
2023/03/22 11:24:17;;;;;;;4.65;3.28;;;17.80;55.00;;;;;;5032167;28;20021;-64
2023/03/22 11:27:15;;;;;;;5.07;3.60;;;17.90;53.70;;;;;;5049075;28;20501;-65
2023/03/22 11:29:44;;;;;;;4.05;3.00;;;17.90;47.60;;;;;;5023640;28;20021;-65
2023/03/22 11:32:28;;;;;;;3.97;2.67;;;18.00;52.20;;;;;;5028978;28;20497;-64
2023/03/22 11:35:19;;;;;;;4.50;2.92;;;18.10;50.20;;;;;;5046878;28;20503;-65
2023/03/22 11:37:46;;;;;;;4.43;3.63;;;18.00;47.70;;;;;;5029133;28;20108;-65
2023/03/22 11:40:17;;;;;;;6.65;3.28;;;18.00;46.40;;;;;;5034193;28;20493;-64
2023/03/22 11:42:43;;;;;;;4.10;3.17;;;17.90;46.50;;;;;;5009254;28;20036;-65
2023/03/22 11:45:15;;;;;;;6.53;2.70;;;17.80;47.10;;;;;;5034021;28;20037;-64
2023/03/22 11:47:41;;;;;;;4.80;3.05;;;17.90;43.40;;;;;;5048776;28;20033;-65
2023/03/22 11:50:19;;;;;;;4.47;2.90;;;17.90;43.50;;;;;;5027642;28;20124;-64
2023/03/22 11:52:47;;;;;;;4.30;2.75;;;17.90;45.50;;;;;;5009128;28;20018;-65
2023/03/22 11:55:15;;;;;;;3.35;2.50;;;18.00;43.10;;;;;;5033491;28;20037;-65
2023/03/22 11:57:40;;;;;;;3.88;2.25;;;17.90;41.40;;;;;;5048019;28;20166;-65
2023/03/22 12:00:18;;;;;;;4.40;2.08;;;18.00;41.90;;;;;;5027331;28;20105;-64
2023/03/22 12:02:53;;;;;;;3.65;2.47;;;18.00;41.50;;;;;;5048589;28;20037;-65
2023/03/22 12:05:28;;;;;;;3.78;2.58;;;17.90;39.40;;;;;;5021584;28;20025;-65
2023/03/22 12:08:12;;;;;;;4.23;2.93;;;17.90;39.40;;;;;;5028464;28;20017;-65
2023/03/22 12:10:40;;;;;;;6.97;2.78;;;17.80;42.10;;;;;;5022794;28;20112;-65
2023/03/22 12:13:16;;;;;;;6.65;3.78;;;17.90;41.50;;;;;;5048165;28;20308;-65
2023/03/22 12:15:47;;;;;;;4.22;3.10;;;18.00;41.20;;;;;;5023305;28;20029;-65
2023/03/22 12:18:37;;;;;;;5.30;3.17;;;18.00;40.60;;;;;;5008744;28;20240;-64
2023/03/22 12:21:03;;;;;;;3.80;2.70;;;17.90;37.50;;;;;;5026133;28;20026;-65
2023/03/22 12:23:30;;;;;;;7.95;2.72;;;17.90;40.20;;;;;;5047474;28;20044;-65
2023/03/22 12:26:20;;;;;;;2.47;2.20;;;17.80;39.90;;;;;;5026543;28;20034;-65
2023/03/22 12:28:58;;;;;;;7.38;3.97;;;17.80;38.70;;;;;;5008343;28;20494;-64
2023/03/22 12:31:38;;;;;;;5.97;3.70;;;17.70;38.40;;;;;;5042689;28;20600;-64
2023/03/22 12:34:13;;;;;;;10.98;8.20;;;17.70;40.20;;;;;;5029600;28;20064;-63
2023/03/22 12:36:53;;;;;;;13.90;7.28;;;17.70;37.60;;;;;;5012566;28;20041;-65
2023/03/22 12:39:24;;;;;;;17.50;11.15;;;17.60;39.50;;;;;;5022333;28;20025;-65
2023/03/22 12:41:54;;;;;;;11.70;6.70;;;17.70;41.40;;;;;;5012867;28;20418;-65
2023/03/22 12:44:26;;;;;;;8.38;4.93;;;17.70;39.80;;;;;;5038465;28;20100;-65
2023/03/22 12:47:05;;;;;;;8.23;5.07;;;17.60;41.20;;;;;;5052279;28;20028;-65
2023/03/22 12:49:40;;;;;;;5.53;3.38;;;17.60;40.40;;;;;;5024103;28;20045;-65
2023/03/22 12:52:20;;;;;;;4.18;3.00;;;17.60;40.80;;;;;;5051898;28;20029;-64
2023/03/22 12:54:47;;;;;;;4.32;3.42;;;17.70;41.80;;;;;;5026209;28;20112;-47
2023/03/22 12:57:15;;;;;;;4.65;2.83;;;17.80;41.40;;;;;;5051545;28;20539;-68